Redwood Falls Municipal Airport
KRWF : now visible

Airfield :











YOU CAN JOIN US ON...

 
LOGIN :

Register | Disclaimer

   EN    FR    IT 

 









Legend :    VFR   Marginal VFR   IFR   Intensive IFR   Very Intensive IFR
Visi :
Ceiling :
>= 8 km
>= 3000ft
5 to 8 km
1000 to 3000 ft
1500m to 5 km
500 to 1000 ft
800 to 1500m
200 to 500 ft
< 800m
< 200 ft
Symbols :   Thunderstorms  Fog  Heavy snow  Heavy precipitations  Wind > 20 kt







- Airport Elevation : 1024 ft


KRWF - Redwood Falls Municipal

CURRENT METAR :
  • 211653Z AUTO 20017G28KT 10SM BKN023 BKN028 26/22 A2970 RMK AO2 PK WND 19030/1614 SLP052 T02610217

EXPIRED METARs :
  • 211650Z AUTO 20015G28KT 10SM BKN023 BKN028 27/22 A2970 RMK AO2 PK WND 19030/1614
  • 211635Z AUTO 20021G28KT 10SM SCT022 27/22 A2970 RMK AO2 PK WND 19030/1614 T02670217
  • 211553Z AUTO 19017G25KT 10SM OVC021 26/22 A2971 RMK AO2 PK WND 19029/1531 SLP054 T02560222
  • 211453Z AUTO 16015KT 10SM BKN015 23/22 A2970 RMK AO2 RAE1356B11E25 TSE1359 SLP053 P0000 60016 T02330217 58015
  • 211418Z AUTO 16016KT 10SM -RA SCT015 BKN032 BKN100 22/21 A2972 RMK AO2 LTG DSNT NE RAE1356B11 TSE1359 P0000 T02170206

TAF KRWF
Valid from the 21 at 12:00 until the 22 at 12:00 UTC


211126Z 2112/2212 17011KT P6SM VCSH OVC025
TEMPO 2112/2114 3SM -TSRA BR BKN012CB
FM211400 18014G24KT P6SM VCSH OVC015
FM211700 20015G25KT P6SM VCTS BKN020CB
TEMPO 2118/2120 3SM -TSRA BR BKN015CB
FM212100 23015G25KT P6SM SCT050
FM220000 27011KT P6SM FEW250
No reported NOTAMs for that airfield.



MET'MAP, your aeronautical weather chart ! - Copyright ORBIFLY December 2007 - Disclaimer

ORBIFLY MET'MAP TEAM :

Programming & Development : Alexandra Zaïnal
Concept & Development : Baudouin d'Aumeries
Co-Development & Prog : Marc-Olivier Méhu
Technical & hardware support : Manuel Goepfert

Contact : metmap@orbifly.com




SOURCES & CREDITS :

   NOAA       Earth
Advisory